Meteorológiai információk azoknak akik tudják olvasni.

METAR = LHBP 260200Z VRB02KT CAVOK 14/13 Q1014 NOSIG

9 órás TAF = TAF TAF LHBP 242330Z 2423/2424 30008KT CAVOK BECMG 2506/2509 24010KT OVC030 TEMPO 2509/2515 24015G25KT 8000 -RA BKN013 OVC025 BECMG 2515/2518 30008KT CAVOK

24 órás TAF = TAF TAF LHBP 251715Z 2518/2618 08007KT CAVOK BECMG 2518/2520 30007KT PROB30 TEMPO 2518/2520 6000 -SHRA FEW050TCU SCT080 BECMG 2520/2522 VRB03KT TEMPO 2609/2613 SCT045

ÁLLOMÁS.................... LHBP
ÉSZLELÉS................... Sun Jun 26, 04:00 CEST
MOST....................... Sun Jun 26, 04:31 CEST
IDŐ........................ 31 perccel ezelőtt
SZÉL....................... változó irányból 2 csomó
LÁTÁSTÁVOLSÁG.............. 10 km vagy több
FELHŐZET................... jelentős felhőzet nincs
HŐMÉRSÉKLET................ 57°F (14°C)
HARMATPONT................. 55°F (13°C)
PÁRATARTALOM............... 94%
LÉGNYOMÁS.................. 1014 hPa (29.94 in Hg)

További információ LHBP állomásról

Meteor információ kérése:        állomásról.    

 

www.tothgeza.hu

 

English version
Copyright © 2003-2022 Tóth Géza Minden jog fenntartva.